Time;durP1;ratioP1;P1;durP2;ratioP2;P2;SDS_P1;SDS_P2;PMS_P1;PMS_P2;Temp;Humidity;BMP_temperature;BMP_pressure;BME280_temperature;BME280_humidity;BME280_pressure;Samples;Min_cycle;Max_cycle;Signal;HPM_P1;HPM_P2
2022/04/04 00:01:30;;;;;;;12.47;6.80;;;4.10;99.90;;;;;;5057763;28;40209;-75
2022/04/04 00:03:57;;;;;;;12.17;7.27;;;4.10;99.90;;;;;;5062798;28;38770;-75
2022/04/04 00:06:23;;;;;;;10.70;7.03;;;4.20;99.90;;;;;;5061381;28;38192;-75
2022/04/04 00:08:49;;;;;;;11.77;6.87;;;4.30;99.90;;;;;;5079114;28;36956;-75
2022/04/04 00:11:15;;;;;;;9.00;6.90;;;4.30;99.90;;;;;;5062101;28;38980;-75
2022/04/04 00:13:42;;;;;;;14.70;6.87;;;4.30;99.90;;;;;;5062861;28;38206;-75
2022/04/04 00:16:08;;;;;;;11.27;6.97;;;4.30;99.90;;;;;;5061056;28;37918;-76
2022/04/04 00:18:34;;;;;;;9.67;6.90;;;4.30;99.90;;;;;;5074722;27;37121;-75
2022/04/04 00:21:01;;;;;;;13.90;7.77;;;4.30;99.90;;;;;;5059260;28;38796;-74
2022/04/04 00:23:27;;;;;;;9.60;7.00;;;4.20;99.90;;;;;;5055248;28;49289;-75
2022/04/04 00:25:53;;;;;;;11.50;6.90;;;4.20;99.90;;;;;;5055402;28;36835;-75
2022/04/04 00:28:19;;;;;;;13.10;7.43;;;4.10;99.90;;;;;;5054946;28;38003;-75
2022/04/04 00:30:46;;;;;;;10.70;7.53;;;4.20;99.90;;;;;;5031673;28;40096;-75
2022/04/04 00:33:12;;;;;;;13.80;7.30;;;4.30;99.90;;;;;;5056748;28;39399;-75
2022/04/04 00:35:38;;;;;;;11.93;7.13;;;4.30;99.90;;;;;;5057255;28;37064;-75
2022/04/04 00:38:10;;;;;;;14.00;8.13;;;4.30;99.90;;;;;;5059062;28;37913;-74
2022/04/04 00:40:37;;;;;;;11.70;7.05;;;4.40;99.90;;;;;;5056574;28;38714;-75
2022/04/04 00:43:04;;;;;;;10.23;6.93;;;4.30;99.90;;;;;;5056038;28;39564;-74
2022/04/04 00:45:30;;;;;;;10.17;6.90;;;4.40;99.90;;;;;;5055015;28;38676;-76
2022/04/04 00:47:56;;;;;;;13.60;8.27;;;4.40;99.90;;;;;;5069942;28;37606;-75
2022/04/04 00:50:22;;;;;;;15.23;8.40;;;4.40;99.90;;;;;;5057466;28;38543;-75
2022/04/04 00:52:49;;;;;;;10.63;8.23;;;4.40;99.90;;;;;;5058055;28;36877;-75
2022/04/04 00:55:15;;;;;;;16.07;8.97;;;4.40;99.90;;;;;;5054988;28;37650;-75
2022/04/04 00:57:42;;;;;;;15.10;9.13;;;4.50;99.90;;;;;;5055837;28;37604;-75
2022/04/04 01:00:09;;;;;;;12.97;8.40;;;4.50;99.90;;;;;;5049405;28;37346;-75
2022/04/04 01:02:37;;;;;;;13.53;8.63;;;4.50;99.90;;;;;;5046688;28;38942;-75
2022/04/04 01:05:04;;;;;;;16.90;9.73;;;4.50;99.90;;;;;;5050115;28;38442;-74
2022/04/04 01:07:31;;;;;;;13.43;8.97;;;4.50;99.90;;;;;;5052771;27;37352;-75
2022/04/04 01:09:57;;;;;;;17.53;10.43;;;4.40;99.90;;;;;;5059977;28;40216;-75
2022/04/04 01:12:23;;;;;;;17.50;9.77;;;4.50;99.90;;;;;;5059842;28;37797;-75
2022/04/04 01:14:49;;;;;;;14.73;9.93;;;4.50;99.90;;;;;;5062714;28;38204;-75
2022/04/04 01:17:17;;;;;;;13.73;10.43;;;4.50;99.90;;;;;;5061041;28;37610;-75
2022/04/04 01:19:45;;;;;;;17.00;10.20;;;4.50;99.90;;;;;;5058108;28;39069;-75
2022/04/04 01:22:13;;;;;;;15.20;9.63;;;4.50;99.90;;;;;;5057470;28;37569;-75
2022/04/04 01:24:40;;;;;;;18.30;10.77;;;4.60;99.90;;;;;;5052438;28;38161;-74
2022/04/04 01:27:07;;;;;;;16.77;10.40;;;4.60;99.90;;;;;;5054217;28;35983;-75
2022/04/04 01:29:34;;;;;;;16.43;10.40;;;4.50;99.90;;;;;;5054807;28;40043;-75
2022/04/04 01:32:01;;;;;;;17.60;10.50;;;4.50;99.90;;;;;;5056882;28;40250;-75
2022/04/04 01:34:29;;;;;;;14.37;10.57;;;4.50;99.90;;;;;;5058169;28;46090;-74
2022/04/04 01:36:55;;;;;;;14.63;11.00;;;4.50;99.90;;;;;;5057322;28;36851;-74
2022/04/04 01:39:22;;;;;;;18.77;11.07;;;4.50;99.90;;;;;;5055699;28;39449;-75
2022/04/04 01:41:48;;;;;;;17.53;11.67;;;4.50;99.90;;;;;;5054589;28;39044;-74
2022/04/04 01:44:15;;;;;;;16.63;12.03;;;4.50;99.90;;;;;;5056198;28;39403;-75
2022/04/04 01:46:41;;;;;;;16.77;12.10;;;4.40;99.90;;;;;;5054676;28;38802;-74
2022/04/04 01:49:07;;;;;;;20.03;11.80;;;4.40;99.90;;;;;;5056914;27;37994;-74
2022/04/04 01:51:35;;;;;;;18.30;11.37;;;4.40;99.90;;;;;;5056049;28;39398;-75
2022/04/04 01:54:02;;;;;;;19.07;12.07;;;4.40;99.90;;;;;;5053713;28;39433;-75
2022/04/04 01:56:29;;;;;;;17.73;12.13;;;4.40;99.90;;;;;;5057489;28;49131;-75
2022/04/04 01:58:55;;;;;;;18.57;11.03;;;4.40;99.90;;;;;;5053315;27;38559;-75
2022/04/04 02:01:23;;;;;;;16.80;11.47;;;4.50;99.90;;;;;;5056006;28;38160;-75
2022/04/04 02:03:53;;;;;;;16.30;10.73;;;4.50;99.90;;;;;;5054758;28;38727;-75
2022/04/04 02:06:19;;;;;;;16.30;9.77;;;4.50;99.90;;;;;;5053412;28;38041;-75
2022/04/04 02:08:46;;;;;;;13.00;10.10;;;4.50;99.90;;;;;;5056271;28;39612;-75
2022/04/04 02:11:14;;;;;;;14.17;10.27;;;4.50;99.90;;;;;;5060710;28;39661;-75
2022/04/04 02:13:41;;;;;;;16.83;10.47;;;4.50;99.90;;;;;;5060951;28;39337;-75
2022/04/04 02:16:08;;;;;;;15.87;10.03;;;4.50;99.90;;;;;;5054211;28;39285;-75
2022/04/04 02:18:34;;;;;;;20.40;9.80;;;4.50;99.90;;;;;;5068972;28;39290;-75
2022/04/04 02:21:02;;;;;;;16.47;9.30;;;4.50;99.90;;;;;;5057515;28;38404;-76
2022/04/04 02:23:28;;;;;;;18.07;9.50;;;4.50;99.90;;;;;;5056335;28;46948;-75
2022/04/04 02:25:55;;;;;;;21.47;9.90;;;4.50;99.90;;;;;;5056095;28;37371;-74
2022/04/04 02:28:22;;;;;;;18.33;9.60;;;4.50;99.90;;;;;;5057332;28;40601;-75
2022/04/04 02:30:49;;;;;;;15.13;9.50;;;4.60;99.90;;;;;;5055273;28;38149;-75
2022/04/04 02:33:16;;;;;;;15.70;9.03;;;4.60;99.90;;;;;;5054475;28;38629;-75
2022/04/04 02:35:43;;;;;;;15.37;8.87;;;4.60;99.90;;;;;;5057318;28;37312;-74
2022/04/04 02:38:10;;;;;;;14.57;8.53;;;4.60;99.90;;;;;;5054318;28;39704;-75
2022/04/04 02:40:36;;;;;;;22.97;10.17;;;4.70;99.90;;;;;;5050003;28;38641;-75
2022/04/04 02:43:03;;;;;;;16.53;8.93;;;4.70;99.90;;;;;;5055165;28;38070;-74
2022/04/04 02:45:30;;;;;;;15.13;9.17;;;4.70;99.90;;;;;;5056156;28;37756;-75
2022/04/04 02:47:56;;;;;;;13.07;8.47;;;4.70;99.90;;;;;;5068289;28;38504;-77
2022/04/04 02:50:23;;;;;;;17.63;8.83;;;4.70;99.90;;;;;;5054074;28;40104;-74
2022/04/04 02:52:49;;;;;;;14.73;7.97;;;4.80;99.90;;;;;;5069946;28;37527;-75
2022/04/04 02:58:01;;;;;;;18.03;8.23;;;4.90;99.90;;;;;;5057501;28;39367;-76
2022/04/04 03:00:27;;;;;;;14.37;7.97;;;4.80;99.90;;;;;;5056257;28;48102;-75
2022/04/04 03:02:55;;;;;;;15.13;8.27;;;4.90;99.90;;;;;;5058663;28;38053;-75
2022/04/04 03:05:21;;;;;;;12.53;7.10;;;4.90;99.90;;;;;;5060169;28;38642;-75
2022/04/04 03:07:49;;;;;;;16.23;8.27;;;4.90;99.90;;;;;;5059952;28;35880;-75
2022/04/04 03:10:15;;;;;;;11.73;8.17;;;4.90;99.90;;;;;;5058740;28;39878;-76
2022/04/04 03:12:44;;;;;;;14.53;8.20;;;5.00;99.90;;;;;;5059986;28;37903;-75
2022/04/04 03:15:13;;;;;;;16.33;8.20;;;5.00;99.90;;;;;;5057169;28;35993;-76
2022/04/04 03:17:42;;;;;;;16.13;8.07;;;5.10;99.90;;;;;;5063734;28;37520;-75
2022/04/04 03:20:11;;;;;;;16.63;7.93;;;5.10;99.90;;;;;;5051722;28;38249;-76
2022/04/04 03:22:48;;;;;;;14.10;7.43;;;5.10;99.90;;;;;;5064576;28;38067;-74
2022/04/04 03:25:15;;;;;;;14.87;8.73;;;5.10;99.90;;;;;;5055677;28;36772;-76
2022/04/04 03:27:43;;;;;;;15.63;7.27;;;5.10;99.90;;;;;;5068908;28;39011;-76
2022/04/04 03:30:12;;;;;;;14.03;7.73;;;5.10;99.90;;;;;;5054797;28;38990;-75
2022/04/04 03:32:39;;;;;;;14.10;8.63;;;5.20;99.90;;;;;;5062781;28;38222;-75
2022/04/04 03:35:06;;;;;;;12.50;7.60;;;5.20;99.90;;;;;;5063041;28;38139;-75
2022/04/04 03:37:34;;;;;;;12.83;7.53;;;5.20;99.90;;;;;;5064118;28;38547;-75
2022/04/04 03:40:02;;;;;;;11.20;7.90;;;5.20;99.90;;;;;;5064548;28;37936;-75
2022/04/04 03:42:29;;;;;;;13.97;7.43;;;5.20;99.90;;;;;;5063590;27;48683;-76
2022/04/04 03:44:55;;;;;;;12.80;7.17;;;5.20;99.90;;;;;;5064873;28;36788;-76
2022/04/04 03:47:22;;;;;;;12.30;7.90;;;5.20;99.90;;;;;;5064034;28;39119;-77
2022/04/04 03:49:48;;;;;;;14.67;7.00;;;5.30;99.90;;;;;;5062749;28;39119;-76
2022/04/04 03:52:15;;;;;;;16.23;7.97;;;5.30;99.90;;;;;;5061446;28;40051;-76
2022/04/04 03:54:42;;;;;;;12.00;7.17;;;5.30;99.90;;;;;;5057552;28;37135;-75
2022/04/04 03:57:08;;;;;;;18.70;7.07;;;5.40;99.90;;;;;;5080067;28;39602;-76
2022/04/04 03:59:34;;;;;;;13.10;6.73;;;5.40;99.90;;;;;;5079904;28;38698;-76
2022/04/04 04:02:00;;;;;;;13.63;7.30;;;5.50;99.90;;;;;;5062829;28;38524;-76
2022/04/04 04:04:26;;;;;;;14.20;7.20;;;5.50;99.90;;;;;;5075978;28;35802;-75
2022/04/04 04:06:52;;;;;;;10.90;6.10;;;5.50;99.90;;;;;;5065936;28;38923;-75
2022/04/04 04:09:19;;;;;;;14.77;6.37;;;5.50;99.90;;;;;;5064810;28;36418;-75
2022/04/04 04:11:45;;;;;;;13.50;6.00;;;5.60;99.90;;;;;;5065584;28;38741;-75
2022/04/04 04:14:11;;;;;;;12.27;7.33;;;5.60;99.90;;;;;;5064592;27;37328;-75
2022/04/04 04:16:37;;;;;;;12.43;7.10;;;5.60;99.90;;;;;;5063177;28;39064;-76
2022/04/04 04:19:04;;;;;;;11.27;6.40;;;5.60;99.90;;;;;;5061547;28;40174;-75
2022/04/04 04:21:30;;;;;;;10.07;5.83;;;5.60;99.90;;;;;;5055249;28;37909;-75
2022/04/04 04:23:56;;;;;;;9.83;6.47;;;5.60;99.90;;;;;;5054676;28;36614;-75
2022/04/04 04:26:23;;;;;;;11.67;6.80;;;5.70;99.90;;;;;;5053793;28;37497;-75
2022/04/04 04:28:49;;;;;;;14.10;6.30;;;5.70;99.90;;;;;;5054038;28;38858;-75
2022/04/04 04:31:18;;;;;;;13.23;6.27;;;5.60;99.90;;;;;;5052434;28;38474;-75
2022/04/04 04:33:44;;;;;;;13.77;6.10;;;5.70;99.90;;;;;;5027734;28;37626;-75
2022/04/04 04:36:11;;;;;;;13.67;6.17;;;5.70;99.90;;;;;;5015562;28;39209;-75
2022/04/04 04:38:37;;;;;;;13.20;6.00;;;5.70;99.90;;;;;;5017858;28;38445;-75
2022/04/04 04:41:03;;;;;;;11.17;6.30;;;5.70;99.90;;;;;;5019099;28;41157;-74
2022/04/04 04:43:29;;;;;;;12.07;6.30;;;5.70;99.90;;;;;;5022542;28;37490;-75
2022/04/04 04:45:55;;;;;;;14.03;6.53;;;5.80;99.90;;;;;;5023401;28;38821;-75
2022/04/04 04:48:21;;;;;;;13.47;6.23;;;5.70;99.90;;;;;;5022677;28;39485;-76
2022/04/04 04:50:48;;;;;;;11.67;6.47;;;5.80;99.90;;;;;;5019620;28;39000;-75
2022/04/04 04:53:14;;;;;;;11.70;6.00;;;5.80;99.90;;;;;;5021793;28;36192;-75
2022/04/04 04:55:40;;;;;;;9.90;6.53;;;5.80;99.90;;;;;;5021034;28;37587;-75
2022/04/04 04:58:07;;;;;;;10.80;6.90;;;5.80;99.90;;;;;;5031820;28;37236;-76
2022/04/04 05:00:33;;;;;;;14.97;8.80;;;5.80;99.90;;;;;;5023873;28;38968;-75
2022/04/04 05:05:43;;;;;;;13.43;7.70;;;5.80;99.90;;;;;;5023544;28;49492;-78
2022/04/04 05:08:09;;;;;;;13.27;7.33;;;5.80;99.90;;;;;;5018476;28;39236;-78
2022/04/04 05:10:36;;;;;;;13.30;7.60;;;5.80;99.90;;;;;;5035129;28;38233;-79
2022/04/04 05:13:02;;;;;;;13.93;8.27;;;5.80;99.90;;;;;;5023314;28;37480;-77
2022/04/04 05:15:28;;;;;;;14.70;8.17;;;5.80;99.90;;;;;;5023737;28;38720;-78
2022/04/04 05:17:54;;;;;;;13.63;9.00;;;5.70;99.90;;;;;;5026367;28;38263;-79
2022/04/04 05:20:21;;;;;;;12.03;8.97;;;5.80;99.90;;;;;;5042977;28;38927;-78
2022/04/04 05:22:47;;;;;;;16.27;8.40;;;5.80;99.90;;;;;;5017576;28;37255;-78
2022/04/04 05:25:14;;;;;;;18.33;8.77;;;5.80;99.90;;;;;;5022711;28;39647;-79
2022/04/04 05:27:41;;;;;;;13.03;8.77;;;5.80;99.90;;;;;;5025345;28;37711;-79
2022/04/04 05:30:08;;;;;;;17.17;9.57;;;5.80;99.90;;;;;;5015275;28;37875;-79
2022/04/04 05:32:35;;;;;;;13.97;9.33;;;5.80;99.90;;;;;;5048040;28;37888;-79
2022/04/04 05:35:06;;;;;;;17.60;10.17;;;5.90;99.90;;;;;;5062468;28;39657;-79
2022/04/04 05:37:36;;;;;;;16.40;9.77;;;5.90;99.90;;;;;;5064219;28;48655;-79
2022/04/04 05:40:03;;;;;;;19.27;9.33;;;5.90;99.90;;;;;;5062371;28;38831;-78
2022/04/04 05:42:30;;;;;;;17.23;9.07;;;5.90;99.90;;;;;;5063733;28;47328;-78
2022/04/04 05:44:57;;;;;;;17.00;9.13;;;6.00;99.90;;;;;;5062436;28;39404;-79
2022/04/04 05:47:23;;;;;;;19.67;9.27;;;6.00;99.90;;;;;;5065686;28;39713;-79
2022/04/04 05:49:49;;;;;;;13.20;9.07;;;6.00;99.90;;;;;;5062846;28;38708;-78
2022/04/04 05:52:16;;;;;;;15.07;9.13;;;6.00;99.90;;;;;;5062133;28;37748;-78
2022/04/04 05:54:54;;;;;;;14.63;9.53;;;6.00;99.90;;;;;;5061327;28;39706;-79
2022/04/04 05:57:23;;;;;;;13.53;9.23;;;6.10;99.90;;;;;;5076674;27;38916;-78
2022/04/04 05:59:50;;;;;;;13.47;8.47;;;6.10;99.90;;;;;;5064615;28;38209;-78
2022/04/04 06:02:16;;;;;;;12.83;8.97;;;6.00;99.90;;;;;;5062590;28;37260;-78
2022/04/04 06:04:42;;;;;;;17.73;9.73;;;6.00;99.90;;;;;;5059352;28;39030;-78
2022/04/04 06:07:08;;;;;;;12.37;8.60;;;6.00;99.90;;;;;;5066492;28;38442;-79
2022/04/04 06:09:34;;;;;;;15.03;9.67;;;6.00;99.90;;;;;;5067810;28;37906;-77
2022/04/04 06:12:00;;;;;;;14.73;10.60;;;6.00;99.90;;;;;;5066685;28;36988;-78
2022/04/04 06:14:26;;;;;;;13.43;10.73;;;6.00;99.90;;;;;;5065957;28;47164;-78
2022/04/04 06:16:52;;;;;;;15.83;9.77;;;5.90;99.90;;;;;;5065634;28;39457;-79
2022/04/04 06:19:19;;;;;;;16.53;10.80;;;5.90;99.90;;;;;;5072519;28;38735;-79
2022/04/04 06:21:45;;;;;;;14.80;9.57;;;5.90;99.90;;;;;;5061855;28;39186;-79
2022/04/04 06:24:12;;;;;;;14.20;10.20;;;5.80;99.90;;;;;;5049874;27;40014;-78
2022/04/04 06:26:39;;;;;;;14.37;9.40;;;5.80;99.90;;;;;;5061675;28;38314;-79
2022/04/04 06:29:05;;;;;;;20.13;10.53;;;5.80;99.90;;;;;;5060783;28;38242;-76
2022/04/04 06:31:31;;;;;;;16.43;9.87;;;5.80;99.90;;;;;;5061046;28;37322;-78
2022/04/04 06:33:57;;;;;;;18.27;10.07;;;5.80;99.90;;;;;;5061410;28;38712;-79
2022/04/04 06:36:26;;;;;;;16.30;9.87;;;5.80;99.90;;;;;;5045475;28;38786;-80
2022/04/04 06:38:53;;;;;;;16.27;10.00;;;5.80;99.90;;;;;;5062790;28;38477;-78
2022/04/04 06:41:19;;;;;;;17.33;9.10;;;5.80;99.90;;;;;;5056167;28;38541;-79
2022/04/04 06:43:45;;;;;;;20.87;8.93;;;5.80;99.90;;;;;;5058960;28;38772;-78
2022/04/04 06:46:13;;;;;;;13.93;9.60;;;5.90;99.90;;;;;;5062453;28;38267;-78
2022/04/04 06:48:39;;;;;;;14.87;9.43;;;5.90;99.90;;;;;;5062195;28;38943;-79
2022/04/04 06:51:06;;;;;;;17.23;9.37;;;5.90;99.90;;;;;;5058941;28;37775;-79
2022/04/04 06:53:32;;;;;;;18.60;9.17;;;5.90;99.90;;;;;;5063093;28;39580;-79
2022/04/04 06:55:58;;;;;;;13.27;7.83;;;5.90;99.90;;;;;;5061389;28;39539;-78
2022/04/04 06:58:26;;;;;;;21.53;8.67;;;6.00;99.90;;;;;;5064176;28;38454;-78
2022/04/04 07:00:52;;;;;;;14.53;9.30;;;6.00;99.90;;;;;;5061719;28;37183;-79
2022/04/04 07:03:18;;;;;;;17.93;8.77;;;6.00;99.90;;;;;;5067281;28;39920;-84
2022/04/04 07:05:44;;;;;;;19.80;9.70;;;6.00;99.90;;;;;;5065821;28;38999;-81
2022/04/04 07:08:11;;;;;;;17.37;8.70;;;6.10;99.90;;;;;;5056135;28;39877;-79
2022/04/04 07:10:37;;;;;;;22.97;9.93;;;6.10;99.90;;;;;;5062891;28;37253;-78
2022/04/04 07:13:07;;;;;;;22.37;10.57;;;6.10;99.90;;;;;;5064235;28;39185;-81
2022/04/04 07:15:33;;;;;;;20.40;10.77;;;6.10;99.90;;;;;;5064575;28;39607;-79
2022/04/04 07:18:02;;;;;;;21.50;10.53;;;6.10;99.90;;;;;;5061433;28;38593;-81
2022/04/04 07:20:28;;;;;;;18.00;11.67;;;6.00;99.90;;;;;;5061314;28;47310;-79
2022/04/04 07:22:59;;;;;;;23.57;10.83;;;6.00;99.90;;;;;;5055823;28;40444;-79
2022/04/04 07:25:31;;;;;;;19.80;12.27;;;5.90;99.90;;;;;;5062395;28;39124;-78
2022/04/04 07:27:57;;;;;;;16.58;11.18;;;5.90;99.90;;;;;;5061870;28;37192;-79
2022/04/04 07:30:24;;;;;;;19.43;11.70;;;5.80;99.90;;;;;;5077636;28;37331;-79
2022/04/04 07:32:51;;;;;;;66.50;32.60;;;5.80;99.90;;;;;;5063127;28;38574;-78
2022/04/04 07:35:20;;;;;;;254.90;136.93;;;5.70;99.90;;;;;;5065663;28;39214;-78
2022/04/04 07:37:47;;;;;;;211.40;138.83;;;5.60;99.90;;;;;;5062825;28;38986;-79
2022/04/04 07:40:18;;;;;;;32.30;17.47;;;5.60;99.90;;;;;;5065498;28;38360;-79
2022/04/04 07:42:45;;;;;;;28.83;16.03;;;5.60;99.90;;;;;;5055544;28;40416;-79
2022/04/04 07:45:13;;;;;;;13.87;7.77;;;5.70;99.90;;;;;;5052514;28;38255;-78
2022/04/04 07:47:41;;;;;;;20.90;9.43;;;5.60;99.90;;;;;;5083599;28;38902;-79
2022/04/04 07:50:13;;;;;;;14.37;8.10;;;5.60;99.90;;;;;;5053618;28;37831;-80
2022/04/04 07:52:40;;;;;;;15.05;7.25;;;5.50;99.90;;;;;;5058042;28;38411;-75
2022/04/04 07:55:09;;;;;;;17.07;7.97;;;5.60;99.90;;;;;;5064850;28;38740;-79
2022/04/04 07:57:35;;;;;;;15.60;7.07;;;5.50;99.90;;;;;;5074242;28;38808;-79
2022/04/04 08:00:04;;;;;;;19.57;7.50;;;5.50;99.90;;;;;;5075858;28;37768;-80
2022/04/04 08:02:33;;;;;;;16.10;7.73;;;5.60;99.90;;;;;;5030927;28;46413;-79
2022/04/04 08:04:59;;;;;;;15.03;7.33;;;5.60;99.90;;;;;;5077801;28;39551;-80
2022/04/04 08:07:25;;;;;;;18.57;7.77;;;5.60;99.90;;;;;;5065993;28;39055;-79
2022/04/04 08:09:51;;;;;;;22.27;8.30;;;5.70;99.90;;;;;;5065481;28;37635;-79
2022/04/04 08:12:18;;;;;;;25.27;8.50;;;5.70;99.90;;;;;;5063282;28;39574;-78
2022/04/04 08:14:47;;;;;;;31.90;8.63;;;5.80;99.90;;;;;;5062995;28;38435;-79
2022/04/04 08:17:14;;;;;;;20.10;7.17;;;5.80;99.90;;;;;;5064582;27;39242;-78
2022/04/04 08:19:40;;;;;;;21.63;7.57;;;5.80;99.90;;;;;;5058154;28;36149;-78
2022/04/04 08:22:09;;;;;;;25.20;7.70;;;5.80;99.90;;;;;;5044622;28;38769;-79
2022/04/04 08:24:35;;;;;;;21.33;6.60;;;5.80;99.90;;;;;;5067484;28;38288;-79
2022/04/04 08:27:01;;;;;;;17.97;8.20;;;5.80;99.90;;;;;;5067674;27;38343;-76
2022/04/04 08:29:27;;;;;;;22.87;7.23;;;5.80;99.90;;;;;;5068124;28;37770;-79
2022/04/04 08:31:54;;;;;;;17.13;9.30;;;5.80;99.90;;;;;;5063670;28;39596;-79
2022/04/04 08:34:20;;;;;;;19.77;7.80;;;5.80;99.90;;;;;;5058755;28;37014;-78
2022/04/04 08:36:46;;;;;;;22.07;7.90;;;5.80;99.90;;;;;;5066310;28;39025;-78
2022/04/04 08:39:12;;;;;;;18.30;8.40;;;5.80;99.90;;;;;;5059542;28;37325;-79
2022/04/04 08:41:38;;;;;;;20.80;7.83;;;5.80;99.90;;;;;;5059131;28;38862;-78
2022/04/04 08:44:06;;;;;;;24.70;7.73;;;5.80;99.90;;;;;;5062913;27;38423;-78
2022/04/04 08:46:33;;;;;;;26.27;8.83;;;5.80;99.90;;;;;;5063401;28;39450;-78
2022/04/04 08:49:04;;;;;;;19.80;8.03;;;5.90;99.90;;;;;;5064814;28;37125;-78
2022/04/04 08:51:30;;;;;;;24.63;8.03;;;5.90;99.90;;;;;;5063556;28;48662;-78
2022/04/04 08:53:57;;;;;;;21.17;7.17;;;6.00;99.90;;;;;;5059573;28;38572;-77
2022/04/04 08:56:24;;;;;;;22.40;7.67;;;6.00;99.90;;;;;;5056692;28;39043;-77
2022/04/04 08:58:54;;;;;;;21.83;7.57;;;6.00;99.90;;;;;;5074394;28;38949;-79
2022/04/04 09:01:23;;;;;;;16.87;7.10;;;5.90;99.90;;;;;;5058727;28;40054;-79
2022/04/04 09:04:13;;;;;;;20.83;7.10;;;6.00;99.90;;;;;;5060340;28;38351;-78
2022/04/04 09:06:52;;;;;;;17.73;7.50;;;6.00;99.90;;;;;;5061519;28;47249;-78
2022/04/04 09:09:19;;;;;;;19.33;6.23;;;6.00;99.90;;;;;;5075616;28;36011;-78
2022/04/04 09:12:19;;;;;;;21.57;6.13;;;6.00;99.90;;;;;;5061284;28;39567;-78
2022/04/04 09:14:51;;;;;;;20.43;7.13;;;6.00;99.90;;;;;;5061774;28;48748;-79
2022/04/04 09:17:34;;;;;;;19.48;7.03;;;6.00;99.90;;;;;;5056816;28;38804;-78
2022/04/04 09:20:09;;;;;;;20.03;5.50;;;6.10;99.90;;;;;;5060788;28;36840;-80
2022/04/04 09:22:53;;;;;;;15.13;5.00;;;6.10;99.90;;;;;;5059244;28;48643;-79
2022/04/04 09:25:31;;;;;;;21.30;5.80;;;6.10;99.90;;;;;;5065650;28;38949;-80
2022/04/04 09:28:21;;;;;;;22.43;5.93;;;6.20;99.90;;;;;;5064964;28;39075;-81
2022/04/04 09:31:07;;;;;;;18.80;6.60;;;6.10;99.90;;;;;;5062474;28;48971;-80
2022/04/04 09:33:41;;;;;;;21.27;5.23;;;6.10;99.90;;;;;;5061080;28;47175;-80
2022/04/04 09:36:08;;;;;;;16.57;4.80;;;6.10;99.90;;;;;;5070493;28;38940;-79
2022/04/04 09:38:35;;;;;;;21.10;5.83;;;6.10;99.90;;;;;;5059633;28;39735;-80
2022/04/04 09:41:19;;;;;;;15.97;5.57;;;6.10;99.90;;;;;;5061469;27;38001;-80
2022/04/04 09:44:00;;;;;;;20.87;5.63;;;6.20;99.90;;;;;;5059325;28;38923;-79
2022/04/04 09:46:34;;;;;;;21.53;5.20;;;6.20;99.90;;;;;;5059386;28;38632;-79
2022/04/04 09:49:13;;;;;;;22.73;5.30;;;6.30;99.90;;;;;;5062278;28;37368;-79
2022/04/04 09:51:50;;;;;;;19.40;4.60;;;6.20;99.90;;;;;;5076417;27;47434;-80
2022/04/04 09:54:18;;;;;;;17.57;4.67;;;6.20;99.90;;;;;;5054322;28;39758;-78
2022/04/04 09:56:46;;;;;;;21.70;4.80;;;6.20;99.90;;;;;;5063372;28;39438;-79
2022/04/04 09:59:14;;;;;;;18.30;4.57;;;6.30;99.90;;;;;;5060413;28;36930;-80
2022/04/04 10:01:43;;;;;;;16.00;4.23;;;6.30;99.90;;;;;;5060075;28;37059;-79
2022/04/04 10:04:12;;;;;;;16.90;4.77;;;6.30;99.90;;;;;;5061183;28;38644;-80
2022/04/04 10:06:40;;;;;;;16.07;5.73;;;6.30;99.90;;;;;;5061333;28;39857;-79
2022/04/04 10:09:06;;;;;;;11.63;5.73;;;6.20;99.90;;;;;;5058485;28;38986;-79
2022/04/04 10:11:36;;;;;;;14.00;6.20;;;6.20;99.90;;;;;;5064246;28;36453;-79
2022/04/04 10:14:02;;;;;;;14.57;6.80;;;6.20;99.90;;;;;;5061179;28;40432;-80
2022/04/04 10:16:30;;;;;;;16.17;8.50;;;6.20;99.90;;;;;;5064319;28;49020;-79
2022/04/04 10:18:59;;;;;;;24.17;11.17;;;6.20;99.90;;;;;;5061349;28;37706;-79
2022/04/04 10:21:26;;;;;;;18.57;10.60;;;6.20;99.90;;;;;;5066047;28;37935;-79
2022/04/04 10:23:56;;;;;;;15.47;9.90;;;6.20;99.90;;;;;;5059982;28;40798;-80
2022/04/04 10:26:32;;;;;;;12.63;9.53;;;6.20;99.90;;;;;;5065105;28;37781;-80
2022/04/04 10:29:13;;;;;;;16.00;10.80;;;6.20;99.90;;;;;;5054669;28;37844;-79
2022/04/04 10:31:51;;;;;;;15.50;9.47;;;6.20;99.90;;;;;;5058991;28;47791;-79
2022/04/04 10:34:23;;;;;;;14.07;8.97;;;6.20;99.90;;;;;;5055416;27;40777;-79
2022/04/04 10:36:59;;;;;;;15.87;9.00;;;6.30;99.90;;;;;;5063370;28;39099;-79
2022/04/04 10:39:36;;;;;;;16.30;9.33;;;6.30;99.90;;;;;;5059007;28;38433;-79
2022/04/04 10:42:22;;;;;;;15.90;8.33;;;6.40;99.90;;;;;;5063960;28;37247;-80
2022/04/04 10:44:49;;;;;;;22.03;8.87;;;6.50;99.90;;;;;;5063462;28;41022;-77
2022/04/04 10:47:23;;;;;;;10.80;7.43;;;6.40;99.90;;;;;;5061419;28;40962;-79
2022/04/04 10:49:49;;;;;;;13.83;6.63;;;6.50;99.90;;;;;;5064185;28;39022;-78
2022/04/04 10:52:21;;;;;;;15.43;7.70;;;6.50;99.90;;;;;;5063121;28;37304;-77
2022/04/04 10:54:48;;;;;;;17.05;8.27;;;6.50;99.90;;;;;;5058459;28;39604;-78
2022/04/04 10:57:18;;;;;;;13.37;6.40;;;6.50;99.90;;;;;;5062790;28;39047;-79
2022/04/04 10:59:53;;;;;;;13.53;6.97;;;6.60;99.90;;;;;;5058435;28;37381;-78
2022/04/04 11:02:20;;;;;;;14.47;7.03;;;6.60;99.90;;;;;;5063702;28;37169;-79
2022/04/04 11:07:41;;;;;;;21.10;6.33;;;6.70;99.90;;;;;;5062859;28;49410;-79
2022/04/04 11:10:10;;;;;;;13.93;6.33;;;6.60;99.90;;;;;;5076897;28;36809;-79
2022/04/04 11:13:15;;;;;;;9.47;6.27;;;6.70;99.90;;;;;;5059495;28;37226;-79
2022/04/04 11:16:13;;;;;;;9.20;5.47;;;6.70;99.90;;;;;;5040160;28;48425;-78
2022/04/04 11:18:53;;;;;;;14.40;5.40;;;6.80;99.90;;;;;;5011503;28;47226;-78
2022/04/04 11:21:41;;;;;;;12.70;5.50;;;6.80;99.90;;;;;;5050121;28;38027;-80
2022/04/04 11:24:09;;;;;;;11.70;4.93;;;6.90;99.90;;;;;;5056528;28;38007;-79
2022/04/04 11:26:57;;;;;;;11.50;4.53;;;7.00;99.90;;;;;;5065200;28;38802;-79
2022/04/04 11:29:25;;;;;;;10.37;4.00;;;7.00;99.90;;;;;;5058405;28;39885;-78
2022/04/04 11:31:54;;;;;;;9.23;3.73;;;7.00;99.90;;;;;;5075392;28;36928;-79
2022/04/04 11:34:23;;;;;;;8.10;3.73;;;7.10;99.90;;;;;;5062156;27;37217;-78
2022/04/04 11:36:49;;;;;;;8.27;3.57;;;7.10;99.90;;;;;;5061707;28;40943;-79
2022/04/04 11:39:16;;;;;;;11.97;3.53;;;7.10;99.90;;;;;;5063214;27;39172;-78
2022/04/04 11:41:52;;;;;;;8.00;2.67;;;7.20;99.90;;;;;;5053914;28;38745;-79
2022/04/04 11:44:32;;;;;;;12.23;3.13;;;7.20;99.90;;;;;;5059315;28;39351;-78
2022/04/04 11:47:11;;;;;;;8.50;2.00;;;7.20;99.90;;;;;;5058298;28;40212;-78
2022/04/04 11:50:01;;;;;;;8.40;2.53;;;7.30;99.90;;;;;;5060563;28;47386;-78
2022/04/04 11:52:27;;;;;;;7.33;3.10;;;7.40;99.90;;;;;;5062722;28;38432;-78
2022/04/04 11:54:53;;;;;;;8.87;2.27;;;7.50;99.90;;;;;;5063694;28;38071;-78
2022/04/04 11:57:24;;;;;;;6.73;2.13;;;7.50;99.90;;;;;;5064757;28;38974;-78
2022/04/04 11:59:58;;;;;;;8.47;2.20;;;7.50;99.90;;;;;;5066097;28;38696;-78
2022/04/04 12:02:30;;;;;;;8.47;2.20;;;7.50;99.90;;;;;;5060135;28;37427;-78
2022/04/04 12:04:57;;;;;;;9.83;2.77;;;7.60;99.90;;;;;;5061015;28;36784;-78
2022/04/04 12:07:23;;;;;;;12.87;2.67;;;7.60;99.90;;;;;;5066269;28;39542;-79
2022/04/04 12:09:52;;;;;;;6.23;2.00;;;7.70;99.90;;;;;;5068516;28;39820;-81
2022/04/04 12:12:18;;;;;;;10.83;2.27;;;7.60;99.90;;;;;;5077458;27;38956;-82
2022/04/04 12:14:47;;;;;;;6.40;2.07;;;7.70;99.90;;;;;;5077882;28;37395;-82
2022/04/04 12:17:16;;;;;;;6.00;1.90;;;7.70;99.90;;;;;;5060171;28;38032;-82
2022/04/04 12:19:44;;;;;;;11.20;2.20;;;7.80;99.90;;;;;;5078908;28;39138;-82
2022/04/04 12:25:03;;;;;;;9.67;2.77;;;7.80;99.90;;;;;;5084908;28;37764;-82
2022/04/04 12:27:29;;;;;;;6.63;1.90;;;7.70;99.90;;;;;;5088152;28;47097;-83
2022/04/04 12:30:03;;;;;;;9.87;2.53;;;7.80;99.90;;;;;;5092980;28;39374;-82
2022/04/04 12:32:38;;;;;;;7.30;2.70;;;7.70;99.90;;;;;;5089670;28;46992;-83
2022/04/04 12:35:07;;;;;;;9.77;2.47;;;7.70;99.90;;;;;;5087898;28;37353;-81
2022/04/04 12:37:43;;;;;;;11.97;3.23;;;7.80;99.90;;;;;;5084749;28;39274;-82
2022/04/04 12:40:22;;;;;;;9.50;2.70;;;7.80;99.90;;;;;;5091751;27;38006;-82
2022/04/04 12:42:50;;;;;;;11.30;2.83;;;7.80;99.90;;;;;;5084520;28;38595;-82
2022/04/04 12:45:18;;;;;;;9.57;2.80;;;7.80;99.90;;;;;;5086738;28;37343;-81
2022/04/04 12:47:54;;;;;;;11.20;2.90;;;7.80;99.90;;;;;;5086951;28;38778;-82
2022/04/04 12:50:21;;;;;;;11.40;3.67;;;7.80;99.90;;;;;;5089245;28;38395;-82
2022/04/04 12:53:02;;;;;;;10.87;3.53;;;7.80;99.90;;;;;;5088805;28;37143;-83
2022/04/04 12:55:29;;;;;;;11.63;2.70;;;7.80;99.90;;;;;;5083232;28;47213;-83
2022/04/04 12:57:55;;;;;;;8.73;3.33;;;7.80;99.90;;;;;;5087240;27;40005;-82
2022/04/04 13:00:35;;;;;;;9.30;3.00;;;7.90;99.90;;;;;;5085035;28;38591;-82
2022/04/04 13:03:24;;;;;;;13.70;3.40;;;7.90;99.90;;;;;;5088951;28;36689;-82
2022/04/04 13:05:55;;;;;;;7.83;2.80;;;7.90;99.90;;;;;;5072921;28;49379;-82